Time;durP1;ratioP1;P1;durP2;ratioP2;P2;SDS_P1;SDS_P2;PMS_P1;PMS_P2;Temp;Humidity;BMP_temperature;BMP_pressure;BME280_temperature;BME280_humidity;BME280_pressure;Samples;Min_cycle;Max_cycle;Signal;HPM_P1;HPM_P2
2022/11/27 00:01:36;;;;;;;6.85;2.58;;;;;;;13.20;45.60;102319.97;4997263;28;20030;-65
2022/11/27 00:04:02;;;;;;;4.97;1.73;;;;;;;13.17;45.03;102328.25;4980457;28;20088;-65
2022/11/27 00:06:28;;;;;;;5.47;2.47;;;;;;;13.13;45.38;102333.00;4996212;28;20061;-65
2022/11/27 00:08:58;;;;;;;7.97;2.00;;;;;;;13.10;45.80;102324.28;4995973;28;20039;-65
2022/11/27 00:11:25;;;;;;;4.55;2.30;;;;;;;13.05;46.20;102312.94;4979518;28;20124;-65
2022/11/27 00:13:51;;;;;;;7.18;2.45;;;;;;;13.02;45.74;102314.03;4979860;28;20037;-65
2022/11/27 00:16:17;;;;;;;8.02;2.33;;;;;;;13.00;45.74;102324.03;4996125;28;20030;-64
2022/11/27 00:18:43;;;;;;;8.32;2.47;;;;;;;12.95;45.57;102301.13;4995818;28;20058;-65
2022/11/27 00:21:18;;;;;;;9.32;2.40;;;;;;;12.92;45.21;102307.59;4963338;28;20104;-65
2022/11/27 00:23:44;;;;;;;7.82;2.25;;;;;;;12.91;46.19;102300.47;4995664;28;20034;-64
2022/11/27 00:26:10;;;;;;;7.80;2.15;;;;;;;12.89;46.41;102307.81;4979116;28;20069;-65
2022/11/27 00:28:36;;;;;;;5.28;2.42;;;;;;;12.88;46.28;102305.19;4995409;28;20060;-65
2022/11/27 00:31:05;;;;;;;7.63;2.42;;;;;;;12.85;45.69;102308.97;4963823;28;20476;-65
2022/11/27 00:33:31;;;;;;;24.73;2.75;;;;;;;12.84;45.08;102316.16;4995536;28;20045;-65
2022/11/27 00:36:01;;;;;;;3.83;2.30;;;;;;;12.81;45.92;102320.94;4979259;28;20492;-65
2022/11/27 00:38:26;;;;;;;3.47;1.75;;;;;;;12.78;46.27;102321.13;4979081;28;20037;-65
2022/11/27 00:40:52;;;;;;;11.57;1.90;;;;;;;12.75;45.88;102318.66;4996625;28;20038;-65
2022/11/27 00:43:17;;;;;;;6.70;2.30;;;;;;;12.67;45.21;102315.66;4979583;28;20097;-65
2022/11/27 00:45:48;;;;;;;5.15;2.17;;;;;;;12.63;45.50;102314.13;4995169;28;20040;-64
2022/11/27 00:48:13;;;;;;;7.28;2.78;;;;;;;12.58;45.22;102309.06;4995333;28;20049;-65
2022/11/27 00:50:38;;;;;;;6.57;2.30;;;;;;;12.54;45.53;102307.56;4996303;28;20042;-64
2022/11/27 00:53:04;;;;;;;6.47;2.30;;;;;;;12.46;45.53;102299.16;4962850;28;20046;-65
2022/11/27 00:55:29;;;;;;;5.35;2.45;;;;;;;12.37;45.82;102297.09;4995238;28;20030;-65
2022/11/27 00:57:54;;;;;;;4.72;2.65;;;;;;;12.34;45.02;102296.47;4995374;28;20070;-65
2022/11/27 01:00:21;;;;;;;6.97;1.98;;;;;;;12.28;45.06;102295.88;4996668;28;20034;-65
2022/11/27 01:02:46;;;;;;;5.38;2.42;;;;;;;12.22;45.38;102290.09;4962478;28;20042;-64
2022/11/27 01:05:12;;;;;;;6.35;2.65;;;;;;;12.18;45.42;102294.81;4994940;28;20459;-64
2022/11/27 01:07:37;;;;;;;5.70;2.63;;;;;;;12.12;45.75;102289.84;4978562;28;20038;-64
2022/11/27 01:10:03;;;;;;;7.25;2.63;;;;;;;12.10;45.92;102283.72;4996391;28;20031;-64
2022/11/27 01:12:28;;;;;;;9.18;2.42;;;;;;;12.05;45.66;102277.81;4996122;28;20479;-63
2022/11/27 01:14:53;;;;;;;3.05;2.13;;;;;;;12.03;45.23;102271.66;4994961;28;20050;-65
2022/11/27 01:17:19;;;;;;;3.80;1.98;;;;;;;11.98;45.39;102265.72;4995955;28;20385;-64
2022/11/27 01:19:44;;;;;;;16.20;2.63;;;;;;;11.96;45.63;102264.13;4995842;28;20030;-64
2022/11/27 01:22:10;;;;;;;13.25;2.53;;;;;;;11.92;45.59;102266.13;4995089;28;20116;-64
2022/11/27 01:24:35;;;;;;;4.25;2.35;;;;;;;11.90;45.47;102260.00;4978197;28;20034;-64
2022/11/27 01:27:00;;;;;;;10.70;2.90;;;;;;;11.87;45.75;102256.66;4978496;28;20453;-64
2022/11/27 01:29:26;;;;;;;7.55;2.53;;;;;;;11.82;45.73;102259.66;4994410;28;20038;-65
2022/11/27 01:31:51;;;;;;;10.68;2.58;;;;;;;11.77;45.72;102253.75;4995853;28;20125;-64
2022/11/27 01:34:17;;;;;;;9.57;2.75;;;;;;;11.72;45.30;102263.94;4995989;28;20396;-64
2022/11/27 01:36:43;;;;;;;6.82;3.67;;;;;;;11.68;45.09;102263.25;4994469;28;20034;-65
2022/11/27 01:39:13;;;;;;;7.10;3.33;;;;;;;11.65;45.66;102262.56;4995670;28;20423;-65
2022/11/27 01:41:39;;;;;;;9.07;2.60;;;;;;;11.61;44.92;102266.44;4994365;28;20062;-65
2022/11/27 01:44:22;;;;;;;4.53;2.72;;;;;;;11.55;45.29;102273.06;4995335;28;20061;-64
2022/11/27 01:47:10;;;;;;;;;;;;;;;11.52;45.54;102269.72;4994711;28;20106;-64
2022/11/27 01:49:40;;;;;;;4.72;2.60;;;;;;;11.49;45.43;102272.59;4994143;28;19964;-64
2022/11/27 01:52:18;;;;;;;17.40;3.15;;;;;;;11.47;45.17;102266.47;4978296;28;20476;-64
2022/11/27 01:54:51;;;;;;;9.27;3.35;;;;;;;11.43;45.43;102259.56;4994215;28;20618;-64
2022/11/27 01:57:21;;;;;;;5.22;2.65;;;;;;;11.42;45.19;102247.97;4977917;28;20120;-64
2022/11/27 01:59:47;;;;;;;5.65;2.88;;;;;;;11.44;45.64;102250.56;4993823;28;20046;-64
2022/11/27 02:02:12;;;;;;;3.85;2.05;;;;;;;11.43;46.11;102238.09;4994015;28;20035;-64
2022/11/27 02:04:38;;;;;;;6.47;2.78;;;;;;;11.44;45.69;102237.16;4995294;28;20400;-64
2022/11/27 02:07:04;;;;;;;13.07;3.13;;;;;;;11.43;45.47;102246.16;4962047;28;20045;-64
2022/11/27 02:09:29;;;;;;;6.63;4.03;;;;;;;11.42;45.85;102249.78;4994987;28;20490;-64
2022/11/27 02:12:04;;;;;;;8.18;3.15;;;;;;;11.40;45.90;102247.22;4993770;28;20125;-64
2022/11/27 02:14:38;;;;;;;4.47;2.38;;;;;;;11.41;45.64;102242.72;4993138;28;20042;-65
2022/11/27 02:17:29;;;;;;;5.30;2.60;;;;;;;11.40;46.04;102227.56;4977507;28;20113;-64
2022/11/27 02:20:25;;;;;;;5.47;2.35;;;;;;;11.39;45.49;102223.19;4993602;28;20118;-64
2022/11/27 02:23:25;;;;;;;4.78;2.15;;;;;;;11.38;46.00;102222.31;4994813;28;20400;-64
2022/11/27 02:26:19;;;;;;;11.55;2.97;;;;;;;11.39;45.82;102217.81;4977347;28;20136;-64
2022/11/27 02:29:00;;;;;;;6.50;2.17;;;;;;;11.40;45.24;102206.09;4993533;28;20173;-64
2022/11/27 02:31:47;;;;;;;4.65;2.58;;;;;;;11.41;46.10;102195.28;4993594;28;20026;-64
2022/11/27 02:34:31;;;;;;;7.22;2.78;;;;;;;11.45;45.82;102182.50;4993810;28;20084;-64
2022/11/27 02:37:06;;;;;;;8.60;2.25;;;;;;;11.43;46.07;102161.16;4994827;28;20465;-63
2022/11/27 02:39:39;;;;;;;5.90;2.05;;;;;;;11.46;46.17;102155.59;4993155;28;20054;-64
2022/11/27 02:42:11;;;;;;;13.32;2.65;;;;;;;11.53;46.28;102145.34;4993332;28;20448;-64
2022/11/27 02:44:42;;;;;;;5.32;2.30;;;;;;;11.60;46.30;102155.53;4976774;28;20392;-65
2022/11/27 02:47:08;;;;;;;6.00;2.42;;;;;;;11.70;46.02;102174.59;4976835;28;20038;-64
2022/11/27 02:49:35;;;;;;;6.55;2.33;;;;;;;11.78;46.47;102156.13;4993192;28;20476;-65
2022/11/27 02:52:01;;;;;;;3.22;1.77;;;;;;;11.84;45.92;102133.38;4993503;28;20511;-65
2022/11/27 02:54:28;;;;;;;4.97;2.30;;;;;;;11.87;46.52;102144.78;4976620;28;20030;-65
2022/11/27 02:56:55;;;;;;;6.07;2.10;;;;;;;11.94;45.85;102146.09;4976766;28;20031;-65
2022/11/27 02:59:23;;;;;;;8.65;2.60;;;;;;;12.01;46.25;102139.31;4992977;28;20039;-64
2022/11/27 03:01:55;;;;;;;10.10;2.30;;;;;;;12.06;46.17;102131.78;4976846;28;20026;-64
2022/11/27 03:04:26;;;;;;;6.93;2.50;;;;;;;12.10;46.89;102130.63;4977341;28;20029;-65
2022/11/27 03:06:54;;;;;;;9.15;2.38;;;;;;;12.15;46.21;102122.22;4992928;28;20177;-65
2022/11/27 03:09:28;;;;;;;4.53;1.65;;;;;;;12.22;45.95;102123.53;4992786;28;20031;-65
2022/11/27 03:11:53;;;;;;;7.85;2.33;;;;;;;12.27;46.68;102126.75;4992825;28;20038;-65
2022/11/27 03:14:23;;;;;;;4.68;1.77;;;;;;;12.26;45.89;102120.50;4976374;28;20045;-64
2022/11/27 03:16:54;;;;;;;5.03;2.13;;;;;;;12.36;46.32;102117.19;4992791;28;20515;-64
2022/11/27 03:19:53;;;;;;;7.95;2.00;;;;;;;12.38;46.29;102115.25;4993065;28;20034;-64
2022/11/27 03:22:18;;;;;;;6.93;1.75;;;;;;;12.41;46.78;102117.72;4993640;28;20125;-65
2022/11/27 03:24:43;;;;;;;12.00;1.85;;;;;;;12.43;46.04;102126.50;4993087;28;20514;-64
2022/11/27 03:27:11;;;;;;;7.65;1.60;;;;;;;12.45;45.84;102129.97;4993922;28;20416;-65
2022/11/27 03:29:41;;;;;;;7.57;1.90;;;;;;;12.49;46.14;102131.47;4976406;28;20496;-64
2022/11/27 03:32:06;;;;;;;4.97;1.60;;;;;;;12.50;46.30;102131.38;4992439;28;20041;-64
2022/11/27 03:34:32;;;;;;;3.90;1.55;;;;;;;12.53;45.84;102139.22;4992814;28;20034;-64
2022/11/27 03:36:58;;;;;;;3.67;1.25;;;;;;;12.50;45.93;102130.50;4993028;28;20030;-64
2022/11/27 03:39:24;;;;;;;7.57;2.22;;;;;;;12.55;45.90;102136.41;4992206;28;20511;-64
2022/11/27 03:42:05;;;;;;;8.43;1.80;;;;;;;12.57;46.16;102138.00;4992608;28;20451;-64
2022/11/27 03:44:32;;;;;;;6.38;2.03;;;;;;;12.60;46.46;102123.47;4993697;28;20401;-65
2022/11/27 03:47:31;;;;;;;3.10;1.27;;;;;;;12.60;46.84;102124.34;4976518;28;20048;-64
2022/11/27 03:50:08;;;;;;;4.90;1.25;;;;;;;12.60;46.84;102112.72;4975984;28;20042;-64
2022/11/27 03:52:41;;;;;;;8.55;2.60;;;;;;;12.63;46.56;102118.75;4993651;28;20139;-65
2022/11/27 03:55:21;;;;;;;3.50;1.17;;;;;;;12.66;46.88;102120.34;4992895;28;20503;-64
2022/11/27 03:57:54;;;;;;;2.38;2.03;;;;;;;12.68;46.31;102115.72;4975847;28;20034;-64
2022/11/27 04:00:19;;;;;;;;;;;;;;;12.70;46.13;102120.00;4992594;28;20030;-64
2022/11/27 04:02:49;;;;;;;3.85;1.35;;;;;;;12.71;46.06;102104.75;4992394;28;20295;-64
2022/11/27 04:05:15;;;;;;;6.00;2.28;;;;;;;12.70;46.57;102109.25;4992480;28;20121;-64
2022/11/27 04:07:40;;;;;;;9.18;1.55;;;;;;;12.71;45.69;102115.50;4960013;28;20061;-64
2022/11/27 04:10:07;;;;;;;4.53;1.90;;;;;;;12.72;45.71;102112.72;4992253;28;20030;-64
2022/11/27 04:12:32;;;;;;;7.10;2.30;;;;;;;12.74;46.68;102107.22;4992053;28;20373;-64
2022/11/27 04:14:58;;;;;;;5.45;1.98;;;;;;;12.73;45.87;102094.75;4959737;28;20030;-64
2022/11/27 04:17:23;;;;;;;10.95;1.65;;;;;;;12.67;46.37;102087.13;4992098;28;20224;-65
2022/11/27 04:19:48;;;;;;;4.75;1.48;;;;;;;12.76;46.10;102097.19;4976135;28;20053;-64
2022/11/27 04:22:14;;;;;;;4.88;1.35;;;;;;;12.77;46.79;102088.16;4960100;28;20500;-64
2022/11/27 04:24:40;;;;;;;5.85;1.13;;;;;;;12.76;46.52;102081.94;4991755;28;20045;-64
2022/11/27 04:27:05;;;;;;;3.55;1.35;;;;;;;12.78;45.82;102080.00;4993134;28;20125;-64
2022/11/27 04:29:30;;;;;;;16.55;2.40;;;;;;;12.80;45.71;102083.44;4991877;28;20038;-64
2022/11/27 04:31:56;;;;;;;3.97;1.35;;;;;;;12.84;46.42;102084.06;4975820;28;20116;-64
2022/11/27 04:34:21;;;;;;;5.30;1.65;;;;;;;12.82;46.86;102083.31;4976173;28;20022;-64
2022/11/27 04:36:47;;;;;;;12.32;1.55;;;;;;;12.85;46.10;102091.16;4993377;28;20035;-64
2022/11/27 04:39:12;;;;;;;4.43;0.90;;;;;;;12.81;46.21;102095.06;4995421;28;20113;-64
2022/11/27 04:41:38;;;;;;;1.85;1.15;;;;;;;12.88;46.40;102099.00;4979073;28;20167;-64
2022/11/27 04:44:04;;;;;;;6.60;1.80;;;;;;;12.90;47.05;102088.97;4995259;28;20038;-64
2022/11/27 04:46:30;;;;;;;6.43;1.10;;;;;;;12.93;47.07;102088.75;4995293;28;20084;-64
2022/11/27 04:48:55;;;;;;;5.53;1.33;;;;;;;12.93;46.87;102086.06;4979574;28;20069;-64
2022/11/27 04:51:21;;;;;;;3.67;1.38;;;;;;;12.95;45.86;102094.03;4979132;28;20038;-64
2022/11/27 04:53:46;;;;;;;10.00;1.63;;;;;;;12.97;46.00;102106.41;4995288;28;20045;-64
2022/11/27 04:56:12;;;;;;;4.43;1.35;;;;;;;12.97;46.03;102106.41;4978858;28;20026;-64
2022/11/27 04:58:37;;;;;;;3.22;0.98;;;;;;;13.00;46.19;102110.69;4995781;28;20507;-64
2022/11/27 05:01:02;;;;;;;3.15;1.52;;;;;;;13.01;46.10;102101.66;4996746;28;20113;-64
2022/11/27 05:03:28;;;;;;;6.05;1.75;;;;;;;12.98;46.57;102091.94;4996213;28;20488;-65
2022/11/27 05:05:55;;;;;;;4.28;1.45;;;;;;;13.02;46.45;102090.78;4994972;28;20046;-64
2022/11/27 05:08:20;;;;;;;2.95;1.30;;;;;;;13.04;45.89;102086.13;4996085;28;20030;-64
2022/11/27 05:10:46;;;;;;;4.47;1.55;;;;;;;13.04;46.14;102090.63;4994791;28;20057;-64
2022/11/27 05:13:12;;;;;;;3.72;1.15;;;;;;;13.02;46.24;102077.31;4979053;28;20030;-64
2022/11/27 05:15:37;;;;;;;5.53;1.67;;;;;;;13.01;46.27;102072.91;4978380;28;20041;-65
2022/11/27 05:18:02;;;;;;;10.23;1.42;;;;;;;13.03;46.95;102072.81;4995973;28;20040;-64
2022/11/27 05:20:28;;;;;;;5.45;1.70;;;;;;;13.01;46.02;102070.22;4994809;28;20042;-64
2022/11/27 05:22:53;;;;;;;4.15;1.67;;;;;;;13.02;46.41;102068.38;4978289;28;20035;-64
2022/11/27 05:25:18;;;;;;;3.95;1.33;;;;;;;13.01;45.85;102070.22;4994784;28;20060;-64
2022/11/27 05:27:44;;;;;;;3.10;1.13;;;;;;;13.01;47.06;102056.75;4994802;28;20092;-64
2022/11/27 05:30:09;;;;;;;4.45;1.50;;;;;;;12.98;46.51;102038.16;4994630;28;20551;-64
2022/11/27 05:32:35;;;;;;;4.60;1.58;;;;;;;12.98;46.42;102016.66;4994332;28;20030;-64
2022/11/27 05:35:00;;;;;;;3.28;1.67;;;;;;;12.94;46.19;102015.19;4994660;28;20449;-64
2022/11/27 05:37:26;;;;;;;5.82;1.92;;;;;;;12.96;46.14;102010.53;4962169;28;20122;-64
2022/11/27 05:39:51;;;;;;;4.15;1.63;;;;;;;12.96;46.10;102007.84;4994786;28;20026;-64
2022/11/27 05:42:16;;;;;;;8.57;2.40;;;;;;;12.96;45.77;101997.09;4994159;28;20085;-65
2022/11/27 05:44:42;;;;;;;3.70;1.60;;;;;;;12.96;45.91;101991.72;4993988;28;20031;-64
2022/11/27 05:47:07;;;;;;;5.35;2.28;;;;;;;12.95;46.12;101990.00;4995110;28;20416;-64
2022/11/27 05:49:33;;;;;;;6.70;1.88;;;;;;;12.99;47.07;102002.25;4993367;28;20073;-64
2022/11/27 05:51:58;;;;;;;7.30;2.22;;;;;;;13.00;46.27;101998.59;4994525;28;20022;-64
2022/11/27 05:54:23;;;;;;;8.70;2.30;;;;;;;13.02;46.90;102007.38;4965795;28;20070;-64
2022/11/27 05:56:49;;;;;;;3.95;1.85;;;;;;;13.03;47.20;102003.75;4942515;28;20042;-64
2022/11/27 05:59:14;;;;;;;5.47;2.20;;;;;;;13.06;46.97;102016.97;4974330;28;20046;-64
2022/11/27 06:01:40;;;;;;;7.45;1.90;;;;;;;13.08;46.89;102020.41;4974433;28;20493;-64
2022/11/27 06:04:05;;;;;;;5.53;1.98;;;;;;;13.13;47.11;102004.78;4975178;28;20378;-65
2022/11/27 06:06:30;;;;;;;4.97;1.98;;;;;;;13.15;46.93;102005.50;4974316;28;20182;-64
2022/11/27 06:08:56;;;;;;;11.30;2.00;;;;;;;13.19;46.71;102014.22;4974358;28;20623;-64
2022/11/27 06:11:22;;;;;;;4.05;1.63;;;;;;;13.20;46.85;101999.78;4974107;28;20039;-64
2022/11/27 06:13:48;;;;;;;4.20;1.88;;;;;;;13.22;46.79;101998.69;4974365;28;20034;-64
2022/11/27 06:16:17;;;;;;;3.72;1.95;;;;;;;13.23;46.56;101995.00;4976048;28;20061;-64
2022/11/27 06:18:43;;;;;;;14.40;2.40;;;;;;;13.24;46.73;101990.50;4974510;28;20085;-64
2022/11/27 06:21:13;;;;;;;8.57;1.90;;;;;;;13.24;46.96;101974.34;4993558;28;20038;-64
2022/11/27 06:23:40;;;;;;;7.53;2.28;;;;;;;13.20;46.71;101979.13;4977412;28;20562;-64
2022/11/27 06:26:13;;;;;;;7.65;2.38;;;;;;;13.23;46.82;101978.03;4993652;28;20034;-65
2022/11/27 06:28:39;;;;;;;9.80;1.75;;;;;;;13.22;46.62;101981.69;4994773;28;20388;-64
2022/11/27 06:31:11;;;;;;;6.93;1.85;;;;;;;13.22;46.95;101977.19;4977682;28;20034;-64
2022/11/27 06:33:36;;;;;;;11.45;1.50;;;;;;;13.23;45.87;101972.66;4993488;28;20109;-64
2022/11/27 06:36:03;;;;;;;4.90;1.50;;;;;;;13.24;46.24;101963.59;4977325;28;20445;-64
2022/11/27 06:38:30;;;;;;;7.72;2.53;;;;;;;13.25;46.45;101960.78;4993488;28;20030;-64
2022/11/27 06:41:01;;;;;;;5.72;2.72;;;;;;;13.24;46.28;101966.28;4993259;28;20038;-64
2022/11/27 06:43:26;;;;;;;2.00;1.60;;;;;;;13.25;47.10;101960.78;4977215;28;20057;-64
2022/11/27 06:45:59;;;;;;;5.30;1.55;;;;;;;13.27;46.33;101960.66;4994716;28;20114;-64
2022/11/27 06:48:24;;;;;;;9.82;2.65;;;;;;;13.29;46.58;101950.63;4977421;28;20143;-65
2022/11/27 06:50:49;;;;;;;3.95;2.28;;;;;;;13.29;46.38;101948.81;4993116;28;20539;-64
2022/11/27 06:53:15;;;;;;;4.95;1.95;;;;;;;13.31;47.02;101944.19;4976832;28;20038;-64
2022/11/27 06:55:43;;;;;;;5.93;2.15;;;;;;;13.34;45.96;101948.47;4992951;28;20377;-64
2022/11/27 06:58:09;;;;;;;5.65;2.40;;;;;;;13.34;46.04;101945.78;4977320;28;20055;-64
2022/11/27 07:00:34;;;;;;;10.32;3.05;;;;;;;13.36;46.56;101962.66;4976392;28;20035;-64
2022/11/27 07:03:00;;;;;;;7.03;2.67;;;;;;;13.40;45.99;101969.50;4992919;28;20097;-64
2022/11/27 07:05:25;;;;;;;5.72;2.60;;;;;;;13.41;47.12;101966.69;4992886;28;20492;-64
2022/11/27 07:07:51;;;;;;;4.18;2.47;;;;;;;13.45;47.11;101966.47;4992974;28;20034;-64
2022/11/27 07:10:16;;;;;;;11.20;2.97;;;;;;;13.45;47.31;101961.94;4994294;28;20038;-64
2022/11/27 07:12:41;;;;;;;8.73;2.72;;;;;;;13.46;46.39;101958.25;4993997;28;20106;-64
2022/11/27 07:15:07;;;;;;;8.13;2.83;;;;;;;13.47;46.05;101953.72;4992491;28;20488;-64
2022/11/27 07:17:32;;;;;;;11.13;2.58;;;;;;;13.49;47.38;101951.75;4992751;28;20038;-64
2022/11/27 07:19:58;;;;;;;6.28;2.38;;;;;;;13.50;46.73;101954.34;4992733;28;20113;-64
2022/11/27 07:22:23;;;;;;;5.70;3.00;;;;;;;13.52;47.03;101956.91;4992586;28;20117;-64
2022/11/27 07:24:48;;;;;;;16.23;2.97;;;;;;;13.54;45.98;101954.97;4992984;28;20031;-64
2022/11/27 07:27:14;;;;;;;6.28;2.33;;;;;;;13.54;47.43;101949.59;4992394;28;20050;-64
2022/11/27 07:29:39;;;;;;;8.95;3.08;;;;;;;13.54;46.59;101950.44;4993654;28;20042;-64
2022/11/27 07:32:05;;;;;;;6.18;2.88;;;;;;;13.55;46.56;101945.91;4992572;28;20042;-64
2022/11/27 07:34:30;;;;;;;7.65;2.42;;;;;;;13.57;46.61;101938.59;4992222;28;20492;-64
2022/11/27 07:36:55;;;;;;;4.93;2.67;;;;;;;13.56;47.09;101936.88;4976597;28;20057;-64
2022/11/27 07:39:21;;;;;;;6.05;2.65;;;;;;;13.62;47.42;101933.69;4992518;28;20113;-64
2022/11/27 07:41:46;;;;;;;6.35;2.75;;;;;;;13.62;47.46;101929.16;4976046;28;20058;-64
2022/11/27 07:44:11;;;;;;;7.30;3.22;;;;;;;13.60;46.96;101912.25;4976420;28;20038;-64
2022/11/27 07:46:37;;;;;;;7.13;2.75;;;;;;;13.64;46.83;101920.97;4992138;28;20117;-64
2022/11/27 07:49:02;;;;;;;12.45;3.05;;;;;;;13.63;46.95;101916.53;4992768;28;20038;-64
2022/11/27 07:51:28;;;;;;;6.57;2.67;;;;;;;13.60;47.48;101908.69;4992090;28;20046;-64
2022/11/27 07:53:53;;;;;;;5.55;3.03;;;;;;;13.64;47.45;101908.34;4992326;28;20038;-64
2022/11/27 07:56:19;;;;;;;6.38;2.85;;;;;;;13.64;46.44;101902.97;4992215;28;20057;-64
2022/11/27 07:58:45;;;;;;;7.78;3.10;;;;;;;13.67;47.13;101902.72;4991841;28;20042;-64
2022/11/27 08:01:15;;;;;;;7.28;3.20;;;;;;;13.70;46.84;101904.31;4993630;28;20109;-64
2022/11/27 08:03:43;;;;;;;5.30;2.70;;;;;;;13.72;46.42;101899.66;4992225;28;20042;-64
2022/11/27 08:06:20;;;;;;;9.20;3.35;;;;;;;13.75;46.29;101894.03;4992405;28;20034;-64
2022/11/27 08:08:46;;;;;;;12.55;3.08;;;;;;;13.80;46.38;101902.59;4992109;28;20027;-65
2022/11/27 08:11:23;;;;;;;8.20;3.03;;;;;;;13.85;47.05;101911.16;4976453;28;20501;-64
2022/11/27 08:13:49;;;;;;;7.90;2.90;;;;;;;13.84;46.74;101895.97;4995979;28;20037;-64
2022/11/27 08:16:15;;;;;;;5.53;2.75;;;;;;;13.90;46.67;101908.97;4996337;28;20030;-64
2022/11/27 08:18:41;;;;;;;10.02;3.15;;;;;;;13.95;46.73;101904.06;4995816;28;20039;-64
2022/11/27 08:21:06;;;;;;;9.15;2.65;;;;;;;13.98;47.08;101906.50;4997211;28;20034;-64
2022/11/27 08:23:31;;;;;;;7.95;2.70;;;;;;;14.01;46.53;101903.56;4979608;28;20030;-65
2022/11/27 08:25:57;;;;;;;5.82;3.05;;;;;;;14.02;47.86;101897.16;4997210;28;20038;-65
2022/11/27 08:28:22;;;;;;;8.68;3.22;;;;;;;14.04;47.27;101900.63;4996241;28;20480;-65
2022/11/27 08:30:58;;;;;;;6.22;2.83;;;;;;;14.07;47.80;101910.28;4995901;28;20088;-64
2022/11/27 08:33:24;;;;;;;6.07;2.95;;;;;;;14.08;46.99;101893.97;4995940;28;20026;-65
2022/11/27 08:35:49;;;;;;;8.63;2.80;;;;;;;14.11;47.71;101892.88;4995668;28;20057;-65
2022/11/27 08:38:15;;;;;;;7.28;2.42;;;;;;;14.13;48.11;101883.66;4995686;28;20069;-65
2022/11/27 08:40:40;;;;;;;4.43;2.45;;;;;;;14.10;47.70;101878.53;4996588;28;20034;-65
2022/11/27 08:43:06;;;;;;;11.10;2.97;;;;;;;14.10;47.21;101872.31;4979549;28;20037;-65
2022/11/27 08:45:34;;;;;;;9.20;3.20;;;;;;;14.08;47.67;101877.81;4979177;28;20034;-65
2022/11/27 08:47:59;;;;;;;8.23;3.08;;;;;;;14.05;47.76;101867.28;4995579;28;20034;-65
2022/11/27 08:50:25;;;;;;;7.03;3.35;;;;;;;14.05;48.18;101861.91;4996512;28;20460;-64
2022/11/27 08:52:50;;;;;;;6.03;2.67;;;;;;;14.05;48.01;101861.03;4979023;28;20038;-65
2022/11/27 08:55:15;;;;;;;4.20;2.88;;;;;;;14.06;47.75;101870.84;4996903;28;20026;-65
2022/11/27 08:57:41;;;;;;;9.05;3.15;;;;;;;14.06;48.08;101866.31;4995203;28;20117;-65
2022/11/27 09:00:07;;;;;;;6.93;2.80;;;;;;;14.04;47.50;101862.03;4995540;28;20046;-67
2022/11/27 09:02:33;;;;;;;13.00;3.28;;;;;;;14.04;47.34;101859.34;4995271;28;20039;-65
2022/11/27 09:04:58;;;;;;;5.57;2.65;;;;;;;14.07;47.43;101859.09;4996529;28;20022;-65
2022/11/27 09:07:24;;;;;;;7.65;3.30;;;;;;;14.06;48.29;101847.47;4962778;28;20092;-64
2022/11/27 09:09:49;;;;;;;10.45;3.40;;;;;;;14.09;47.47;101855.28;4995489;28;20034;-64
2022/11/27 09:12:15;;;;;;;6.80;3.65;;;;;;;14.09;47.70;101849.91;4996172;28;20518;-65
2022/11/27 09:14:40;;;;;;;7.03;3.08;;;;;;;14.13;47.17;101851.34;4994846;28;20035;-65
2022/11/27 09:17:06;;;;;;;8.50;3.50;;;;;;;14.15;47.48;101843.16;4994793;28;20130;-64
2022/11/27 09:19:31;;;;;;;8.02;3.28;;;;;;;14.15;48.68;101838.63;4994964;28;20033;-64
2022/11/27 09:21:56;;;;;;;5.45;2.70;;;;;;;14.16;47.17;101834.91;4995098;28;20113;-65
2022/11/27 09:24:22;;;;;;;9.82;3.50;;;;;;;14.22;48.42;101834.41;4994712;28;20113;-65
2022/11/27 09:26:47;;;;;;;7.72;3.08;;;;;;;14.25;48.35;101830.59;4994907;28;20124;-65
2022/11/27 09:29:13;;;;;;;9.30;2.85;;;;;;;14.27;47.55;101826.78;4995782;28;20031;-65
2022/11/27 09:31:41;;;;;;;12.75;3.28;;;;;;;14.33;47.62;101823.63;4994533;28;20030;-64
2022/11/27 09:34:06;;;;;;;6.32;3.10;;;;;;;14.34;47.87;101822.66;4994937;28;20033;-64
2022/11/27 09:36:31;;;;;;;6.47;3.25;;;;;;;14.39;47.18;101831.19;4978048;28;20031;-64
2022/11/27 09:38:58;;;;;;;7.85;3.92;;;;;;;14.43;48.05;101816.47;4978083;28;20445;-64
2022/11/27 09:41:54;;;;;;;8.73;3.30;;;;;;;14.48;48.35;101821.47;4978257;28;20066;-64
2022/11/27 09:44:42;;;;;;;11.75;2.83;;;;;;;14.50;47.21;101820.38;4994300;28;20041;-64
2022/11/27 09:47:15;;;;;;;5.20;2.90;;;;;;;14.51;46.89;101814.00;4977930;28;20125;-65
2022/11/27 09:49:59;;;;;;;3.70;2.45;;;;;;;14.53;48.01;101812.00;4994459;28;20025;-65
2022/11/27 09:52:38;;;;;;;11.55;3.38;;;;;;;14.60;46.77;101811.50;4994477;28;20488;-64
2022/11/27 09:55:19;;;;;;;6.70;3.47;;;;;;;14.65;47.05;101811.97;4978495;28;20045;-64
2022/11/27 09:57:52;;;;;;;6.15;3.42;;;;;;;14.69;47.35;101810.69;4995654;28;20046;-64
2022/11/27 10:00:19;;;;;;;7.50;3.50;;;;;;;14.74;48.21;101797.69;4994241;28;20564;-65
2022/11/27 10:02:45;;;;;;;6.82;3.40;;;;;;;14.75;46.95;101783.19;4994410;28;20038;-65
2022/11/27 10:05:28;;;;;;;6.93;2.65;;;;;;;14.84;47.59;101790.50;4977675;28;20057;-65
2022/11/27 10:08:08;;;;;;;7.85;3.90;;;;;;;14.90;47.51;101788.13;4993653;28;20027;-65
2022/11/27 10:10:43;;;;;;;8.27;3.25;;;;;;;14.96;46.79;101792.13;4960354;28;20031;-65
2022/11/27 10:13:26;;;;;;;6.68;2.95;;;;;;;14.99;47.52;101781.09;4976608;28;20015;-64
2022/11/27 10:16:01;;;;;;;10.75;3.30;;;;;;;15.06;47.31;101793.03;4976159;28;20034;-65
2022/11/27 10:18:39;;;;;;;7.97;3.05;;;;;;;15.16;46.66;101781.28;4990592;28;20030;-63
2022/11/27 10:21:28;;;;;;;7.47;3.35;;;;;;;15.24;47.89;101783.34;4974283;28;20400;-64
2022/11/27 10:24:14;;;;;;;7.95;3.60;;;;;;;15.29;46.67;101772.97;4974245;28;20528;-63
2022/11/27 10:26:49;;;;;;;6.50;3.05;;;;;;;15.35;47.35;101777.84;4990573;28;20035;-64
2022/11/27 10:29:28;;;;;;;8.65;3.45;;;;;;;15.45;47.10;101772.44;4990292;28;20447;-64
2022/11/27 10:32:00;;;;;;;6.28;3.17;;;;;;;15.51;47.88;101777.34;4975438;28;20404;-64
2022/11/27 10:34:42;;;;;;;6.20;3.05;;;;;;;15.56;47.51;101773.22;4989612;28;20481;-64
2022/11/27 10:37:14;;;;;;;5.40;2.92;;;;;;;15.60;47.74;101769.28;4990663;28;20033;-64
2022/11/27 10:40:03;;;;;;;5.85;2.60;;;;;;;15.67;46.33;101762.31;4974203;28;20041;-64
2022/11/27 10:42:40;;;;;;;6.40;3.47;;;;;;;15.71;47.98;101758.34;4974922;28;20038;-64
2022/11/27 10:45:27;;;;;;;7.75;3.00;;;;;;;15.76;47.54;101759.75;4974944;28;20400;-64
2022/11/27 10:47:52;;;;;;;4.95;2.78;;;;;;;15.79;46.82;101748.69;4957854;28;20039;-64
2022/11/27 10:50:19;;;;;;;6.95;2.88;;;;;;;15.84;46.58;101746.41;4973593;28;20035;-64
2022/11/27 10:53:01;;;;;;;9.15;3.70;;;;;;;15.88;46.92;101739.72;4989871;28;20062;-64
2022/11/27 10:55:33;;;;;;;3.88;2.70;;;;;;;15.89;47.26;101731.47;4957370;28;20031;-64
2022/11/27 10:58:10;;;;;;;5.47;2.75;;;;;;;15.97;47.27;101730.78;4975207;28;20082;-64
2022/11/27 11:00:35;;;;;;;5.40;2.67;;;;;;;15.99;46.79;101718.84;4989745;28;20035;-64
2022/11/27 11:03:04;;;;;;;5.30;2.53;;;;;;;16.07;46.87;101726.22;4973551;28;20442;-64
2022/11/27 11:05:30;;;;;;;8.27;3.47;;;;;;;16.12;46.67;101713.13;4973496;28;20046;-65
2022/11/27 11:08:05;;;;;;;8.05;3.22;;;;;;;16.18;47.22;101704.44;4957182;28;20086;-65
2022/11/27 11:10:43;;;;;;;7.50;3.63;;;;;;;16.22;46.58;101701.31;4973344;28;20421;-64
2022/11/27 11:13:19;;;;;;;10.43;3.03;;;;;;;16.24;46.31;101693.94;4974005;28;20063;-64
2022/11/27 11:15:47;;;;;;;6.03;2.85;;;;;;;16.27;46.84;101693.59;4974512;28;20039;-64
2022/11/27 11:18:17;;;;;;;8.45;3.15;;;;;;;16.32;47.62;101679.66;4973290;28;20135;-64
2022/11/27 11:20:54;;;;;;;4.80;2.85;;;;;;;16.37;46.68;101685.50;4972959;28;20396;-64
2022/11/27 11:23:29;;;;;;;7.00;3.03;;;;;;;16.43;47.32;101687.63;4989493;28;20031;-65
2022/11/27 11:25:59;;;;;;;5.38;3.05;;;;;;;16.49;46.43;101675.34;4973484;28;20050;-64
2022/11/27 11:28:24;;;;;;;6.95;2.75;;;;;;;16.54;47.32;101676.66;4989413;28;20047;-64
2022/11/27 11:31:01;;;;;;;7.47;2.78;;;;;;;16.54;47.03;101660.44;4973563;28;20508;-64
2022/11/27 11:33:27;;;;;;;8.60;3.60;;;;;;;16.60;47.85;101659.84;4989252;28;20039;-64